Time;durP1;ratioP1;P1;durP2;ratioP2;P2;SDS_P1;SDS_P2;PMS_P1;PMS_P2;Temp;Humidity;BMP_temperature;BMP_pressure;BME280_temperature;BME280_humidity;BME280_pressure;Samples;Min_cycle;Max_cycle;Signal;HPM_P1;HPM_P2
2022/03/07 00:02:12;;;;;;;26.10;15.30;;;;;;;0.86;66.04;101364.30;107424;1250;72023;-71
2022/03/07 00:04:42;;;;;;;29.80;16.60;;;;;;;0.87;65.71;101363.77;107271;1250;72666;-72
2022/03/07 00:07:11;;;;;;;29.90;17.00;;;;;;;0.90;65.48;101360.95;107284;1249;69343;-71
2022/03/07 00:09:40;;;;;;;26.90;16.20;;;;;;;0.93;65.44;101359.01;107271;1250;75449;-71
2022/03/07 00:12:09;;;;;;;27.10;15.10;;;;;;;0.90;65.50;101357.54;107234;1250;60052;-70
2022/03/07 00:14:38;;;;;;;25.20;15.00;;;;;;;0.87;66.47;101356.91;107278;1251;58997;-71
2022/03/07 00:17:07;;;;;;;27.10;14.80;;;;;;;0.90;66.43;101353.41;107296;1250;72025;-73
2022/03/07 00:19:36;;;;;;;25.70;14.80;;;;;;;0.89;66.71;101352.23;107350;1250;70328;-70
2022/03/07 00:22:05;;;;;;;36.00;20.60;;;;;;;0.83;66.53;101352.04;107166;1251;69818;-72
2022/03/07 00:24:34;;;;;;;26.80;16.70;;;;;;;0.82;66.49;101349.98;107253;1249;72378;-72
2022/03/07 00:27:05;;;;;;;27.10;15.00;;;;;;;0.70;67.15;101348.00;107242;1250;59897;-70
2022/03/07 00:29:34;;;;;;;25.70;15.70;;;;;;;0.72;67.07;101346.09;107243;1250;59037;-71
2022/03/07 00:32:08;;;;;;;;;;;;;;;0.71;67.55;101344.41;107291;1250;74561;-69
2022/03/07 00:34:37;;;;;;;23.50;14.00;;;;;;;0.67;67.74;101344.13;107317;1250;72494;-70
2022/03/07 00:37:07;;;;;;;25.40;14.90;;;;;;;0.68;67.32;101341.88;107297;1250;70780;-71
2022/03/07 00:39:36;;;;;;;25.30;14.80;;;;;;;0.66;67.49;101338.84;107300;1250;75368;-69
2022/03/07 00:42:05;;;;;;;24.50;14.90;;;;;;;0.54;68.04;101335.48;107294;1250;59975;-69
2022/03/07 00:44:34;;;;;;;24.10;14.10;;;;;;;0.61;67.57;101338.09;107241;1250;60826;-70
2022/03/07 00:47:04;;;;;;;36.40;19.50;;;;;;;0.67;67.42;101334.90;107162;1252;72591;-70
2022/03/07 00:49:33;;;;;;;34.70;18.90;;;;;;;0.60;67.57;101328.85;107222;1251;69691;-70
2022/03/07 00:52:03;;;;;;;40.40;22.00;;;;;;;0.49;67.67;101320.34;107174;1252;69078;-68
2022/03/07 00:54:32;;;;;;;34.50;21.70;;;;;;;0.42;67.88;101316.20;107163;1250;72468;-67
2022/03/07 00:57:01;;;;;;;38.70;21.50;;;;;;;0.41;68.35;101313.85;107168;1253;63004;-69
2022/03/07 00:59:30;;;;;;;24.30;14.00;;;;;;;0.41;69.08;101308.70;107286;1250;62780;-70
2022/03/07 01:01:59;;;;;;;25.10;14.90;;;;;;;0.45;69.18;101304.83;107198;1251;72146;-71
2022/03/07 01:04:28;;;;;;;24.60;15.80;;;;;;;0.45;68.92;101303.80;107362;1251;71230;-67
2022/03/07 01:06:57;;;;;;;26.90;15.90;;;;;;;0.44;68.69;101298.34;107296;1251;69069;-71
2022/03/07 01:09:27;;;;;;;27.40;15.90;;;;;;;0.42;68.97;101298.04;107251;1250;74397;-71
2022/03/07 01:11:56;;;;;;;28.00;15.50;;;;;;;0.42;68.91;101290.48;107222;1250;59996;-70
2022/03/07 01:14:25;;;;;;;27.50;14.90;;;;;;;0.43;69.27;101292.02;107347;1250;60836;-70
2022/03/07 01:16:54;;;;;;;23.50;14.60;;;;;;;0.42;69.14;101291.36;107255;1251;75062;-74
2022/03/07 01:19:23;;;;;;;23.60;14.20;;;;;;;0.46;68.76;101286.32;107293;1250;72367;-71
2022/03/07 01:21:52;;;;;;;24.00;14.20;;;;;;;0.46;69.01;101284.23;107340;1251;69725;-72
2022/03/07 01:24:21;;;;;;;24.20;14.10;;;;;;;0.47;68.96;101283.38;107257;1251;74779;-72
2022/03/07 01:26:50;;;;;;;22.50;13.70;;;;;;;0.48;69.19;101283.02;107433;1250;59075;-71
2022/03/07 01:29:22;;;;;;;25.10;13.90;;;;;;;0.48;68.87;101279.75;107433;1249;60494;-68
2022/03/07 01:31:52;;;;;;;22.90;14.10;;;;;;;0.47;68.70;101273.95;107424;1250;73847;-69
2022/03/07 01:34:23;;;;;;;29.70;16.00;;;;;;;0.52;69.05;101274.18;107398;1250;71918;-69
2022/03/07 01:36:52;;;;;;;31.80;17.70;;;;;;;0.53;69.08;101275.19;107191;1253;69319;-73
2022/03/07 01:39:21;;;;;;;33.70;19.00;;;;;;;0.35;68.90;101260.34;107373;1250;72565;-70
2022/03/07 01:41:50;;;;;;;38.10;20.90;;;;;;;0.28;69.31;101267.34;107339;1250;58907;-71
2022/03/07 01:44:22;;;;;;;40.20;20.00;;;;;;;0.20;70.25;101263.37;107248;1250;59697;-70
2022/03/07 01:46:51;;;;;;;34.30;19.70;;;;;;;0.20;70.31;101262.70;107152;1250;74607;-73
2022/03/07 01:49:20;;;;;;;35.40;18.30;;;;;;;0.19;70.96;101262.20;107237;1250;71632;-70
2022/03/07 01:51:51;;;;;;;23.40;13.80;;;;;;;0.22;71.28;101259.21;107144;1251;71698;-70
2022/03/07 01:54:22;;;;;;;24.40;14.30;;;;;;;0.26;71.36;101255.37;107091;1251;74114;-71
2022/03/07 01:56:54;;;;;;;22.50;14.20;;;;;;;0.28;71.48;101251.73;107258;1250;61154;-71
2022/03/07 01:59:29;;;;;;;25.20;14.40;;;;;;;0.24;71.41;101251.64;107231;1253;60040;-70
2022/03/07 02:01:58;;;;;;;24.10;13.60;;;;;;;0.20;71.22;101252.42;107113;1250;73580;-71
2022/03/07 02:04:27;;;;;;;25.40;13.60;;;;;;;0.24;70.48;101250.10;107152;1250;72893;-71
2022/03/07 02:06:57;;;;;;;24.80;14.00;;;;;;;0.19;70.97;101254.67;108621;1250;69602;-71
2022/03/07 02:09:27;;;;;;;30.50;17.20;;;;;;;0.23;70.32;101252.00;107152;1250;71755;-70
2022/03/07 02:11:58;;;;;;;34.60;18.80;;;;;;;0.18;70.02;101249.72;107441;1251;59673;-71
2022/03/07 02:14:27;;;;;;;28.80;16.80;;;;;;;0.08;70.32;101248.73;107208;1250;60866;-72
2022/03/07 02:16:57;;;;;;;27.90;15.40;;;;;;;-0.05;71.27;101251.90;107347;1250;72172;-72
2022/03/07 02:19:26;;;;;;;35.40;16.60;;;;;;;-0.19;72.04;101249.78;107498;1250;70316;-72
2022/03/07 02:22:06;;;;;;;29.00;15.60;;;;;;;-0.32;72.64;101246.59;107508;1250;70535;-71
2022/03/07 02:24:44;;;;;;;31.00;17.30;;;;;;;-0.40;72.65;101247.59;107565;1250;73387;-69
2022/03/07 02:27:15;;;;;;;31.10;17.20;;;;;;;-0.46;72.73;101248.23;107354;1250;58844;-71
2022/03/07 02:29:48;;;;;;;41.30;21.30;;;;;;;-0.52;72.59;101244.91;107314;1249;60197;-70
2022/03/07 02:32:24;;;;;;;40.40;21.00;;;;;;;-0.50;72.63;101245.23;107345;1251;73261;-70
2022/03/07 02:34:53;;;;;;;34.90;20.10;;;;;;;-0.47;72.57;101242.27;107258;1251;72772;-69
2022/03/07 02:37:23;;;;;;;36.00;21.00;;;;;;;-0.40;72.62;101244.69;107421;1250;70196;-70
2022/03/07 02:39:55;;;;;;;40.20;20.90;;;;;;;-0.38;72.57;101244.82;107260;1249;74326;-71
2022/03/07 02:42:40;;;;;;;38.20;21.60;;;;;;;-0.37;72.30;101247.89;107616;1250;59032;-70
2022/03/07 02:45:09;;;;;;;38.90;21.80;;;;;;;-0.38;72.14;101243.96;107601;1250;60438;-70
2022/03/07 02:47:39;;;;;;;35.50;21.10;;;;;;;-0.38;73.33;101242.42;107601;1250;75260;-70
2022/03/07 02:50:08;;;;;;;35.50;20.90;;;;;;;-0.32;73.10;101242.32;107570;1250;70216;-73
2022/03/07 02:52:37;;;;;;;39.20;22.40;;;;;;;-0.24;73.22;101237.37;107336;1250;68862;-69
2022/03/07 02:55:08;;;;;;;32.60;17.70;;;;;;;-0.17;72.83;101241.52;107509;1250;71482;-70
2022/03/07 02:57:38;;;;;;;31.90;17.20;;;;;;;-0.09;72.32;101239.31;107448;1250;60834;-71
2022/03/07 03:00:07;;;;;;;32.20;17.60;;;;;;;-0.12;71.69;101241.92;107481;1250;60782;-72
2022/03/07 03:02:36;;;;;;;29.80;16.70;;;;;;;-0.19;71.83;101244.83;107307;1250;73236;-70
2022/03/07 03:05:06;;;;;;;36.00;19.50;;;;;;;-0.26;72.07;101240.84;107303;1250;70705;-70
2022/03/07 03:07:35;;;;;;;35.20;20.10;;;;;;;-0.32;72.62;101238.55;107449;1250;71004;-71
2022/03/07 03:10:05;;;;;;;31.20;18.90;;;;;;;-0.32;73.21;101235.82;107443;1250;71559;-71
2022/03/07 03:12:34;;;;;;;30.30;17.90;;;;;;;-0.26;73.40;101237.41;107454;1250;58961;-71
2022/03/07 03:15:04;;;;;;;33.30;19.40;;;;;;;-0.19;73.02;101234.38;107548;1250;62065;-70
2022/03/07 03:17:34;;;;;;;34.80;18.50;;;;;;;-0.12;73.08;101229.27;107501;1250;71737;-72
2022/03/07 03:20:03;;;;;;;32.40;18.20;;;;;;;-0.10;72.70;101230.42;107422;1250;71408;-69
2022/03/07 03:22:32;;;;;;;30.80;18.80;;;;;;;-0.06;72.53;101231.70;107427;1250;69143;-69
2022/03/07 03:25:02;;;;;;;36.80;22.20;;;;;;;-0.06;72.63;101228.65;107429;1249;73543;-70
2022/03/07 03:27:31;;;;;;;33.40;18.90;;;;;;;0.00;72.40;101229.53;107307;1251;61022;-70
2022/03/07 03:30:00;;;;;;;41.40;21.10;;;;;;;-0.03;72.04;101227.70;107424;1250;61602;-70
2022/03/07 03:32:30;;;;;;;30.80;18.10;;;;;;;-0.08;71.85;101223.19;107455;1251;74856;-70
2022/03/07 03:34:59;;;;;;;35.40;19.00;;;;;;;-0.11;71.60;101221.19;107448;1250;73532;-71
2022/03/07 03:37:27;;;;;;;35.50;18.60;;;;;;;-0.16;72.23;101220.79;107411;1250;70146;-69
2022/03/07 03:39:59;;;;;;;34.70;19.80;;;;;;;-0.18;72.86;101217.21;107210;1251;74153;-69
2022/03/07 03:42:28;;;;;;;36.60;20.00;;;;;;;-0.16;73.55;101219.77;107487;1250;60230;-68
2022/03/07 03:44:57;;;;;;;30.70;19.00;;;;;;;-0.10;73.00;101221.02;107426;1250;60371;-70
2022/03/07 03:47:27;;;;;;;39.30;20.90;;;;;;;-0.11;72.78;101220.67;107455;1250;71560;-69
2022/03/07 03:49:56;;;;;;;39.90;21.80;;;;;;;-0.16;72.58;101219.92;107430;1250;71519;-70
2022/03/07 03:52:25;;;;;;;30.00;18.70;;;;;;;-0.28;73.46;101216.73;107451;1249;70044;-69
2022/03/07 03:54:55;;;;;;;29.30;18.20;;;;;;;-0.27;73.56;101220.66;107186;1250;72853;-69
2022/03/07 03:57:25;;;;;;;38.60;21.50;;;;;;;-0.23;73.57;101211.84;107410;1250;60676;-72
2022/03/07 03:59:55;;;;;;;39.20;21.00;;;;;;;-0.19;73.64;101210.75;107464;1250;61713;-68
2022/03/07 04:02:23;;;;;;;37.30;21.80;;;;;;;-0.17;74.04;101206.43;107314;1248;74625;-69
2022/03/07 04:04:53;;;;;;;37.60;22.70;;;;;;;-0.15;74.16;101205.69;107264;1250;72766;-70
2022/03/07 04:07:22;;;;;;;40.40;21.00;;;;;;;-0.12;73.87;101204.61;107497;1250;68918;-69
2022/03/07 04:09:51;;;;;;;46.50;24.80;;;;;;;-0.10;73.79;101204.75;107165;1251;72575;-72
2022/03/07 04:12:20;;;;;;;32.20;18.70;;;;;;;-0.06;73.67;101203.80;107401;1250;62133;-71
2022/03/07 04:14:49;;;;;;;33.20;18.90;;;;;;;-0.14;73.51;101200.73;107421;1250;61517;-72
2022/03/07 04:17:18;;;;;;;30.10;17.80;;;;;;;-0.16;74.03;101201.27;107382;1251;72641;-70
2022/03/07 04:19:47;;;;;;;30.30;17.50;;;;;;;-0.15;73.37;101200.23;107079;1251;72886;-70
2022/03/07 04:22:16;;;;;;;31.00;18.10;;;;;;;-0.21;73.36;101194.53;107489;1250;71254;-70
2022/03/07 04:24:45;;;;;;;30.50;17.80;;;;;;;-0.24;73.42;101195.61;107263;1251;74100;-72
2022/03/07 04:27:14;;;;;;;34.80;18.70;;;;;;;-0.25;73.31;101193.92;107148;1251;61897;-73
2022/03/07 04:29:43;;;;;;;32.70;19.10;;;;;;;-0.25;73.58;101190.67;107152;1251;61727;-70
2022/03/07 04:32:12;;;;;;;36.20;19.70;;;;;;;-0.23;73.48;101195.08;107249;1250;74272;-71
2022/03/07 04:34:40;;;;;;;35.10;21.70;;;;;;;-0.25;73.37;101194.08;107203;1251;72378;-70
2022/03/07 04:37:09;;;;;;;37.30;21.60;;;;;;;-0.28;73.36;101196.88;107248;1251;70155;-70
2022/03/07 04:39:38;;;;;;;31.80;16.60;;;;;;;-0.26;73.33;101195.82;107140;1251;72236;-70
2022/03/07 04:42:07;;;;;;;29.90;17.50;;;;;;;-0.26;73.24;101194.10;106858;1253;61474;-70
2022/03/07 04:44:36;;;;;;;32.90;17.90;;;;;;;-0.30;73.17;101194.19;107065;1251;58883;-71
2022/03/07 04:47:06;;;;;;;41.10;24.50;;;;;;;-0.39;73.26;101190.75;107158;1251;73323;-70
2022/03/07 04:49:35;;;;;;;37.00;21.10;;;;;;;-0.45;74.31;101191.91;107165;1250;72683;-69
2022/03/07 04:52:04;;;;;;;28.50;17.20;;;;;;;-0.40;73.81;101189.41;107098;1251;70200;-72
2022/03/07 04:54:35;;;;;;;36.70;21.50;;;;;;;-0.39;73.73;101185.80;107214;1250;72668;-71
2022/03/07 04:57:05;;;;;;;32.80;18.90;;;;;;;-0.43;73.81;101183.48;107240;1249;59780;-72
2022/03/07 04:59:34;;;;;;;37.40;21.60;;;;;;;-0.42;73.97;101179.01;107141;1251;60631;-70
2022/03/07 05:02:03;;;;;;;39.10;19.50;;;;;;;-0.39;74.84;101180.84;107042;1251;72114;-73
2022/03/07 05:04:33;;;;;;;33.50;19.40;;;;;;;-0.31;73.83;101183.07;107069;1251;70831;-71
2022/03/07 05:07:03;;;;;;;36.20;20.80;;;;;;;-0.32;73.40;101178.64;106825;1251;71707;-70
2022/03/07 05:09:31;;;;;;;39.20;22.50;;;;;;;-0.38;73.54;101177.05;106935;1252;74385;-72
2022/03/07 05:12:00;;;;;;;39.20;22.00;;;;;;;-0.44;72.85;101179.05;107054;1251;61592;-70
2022/03/07 05:14:29;;;;;;;38.80;21.30;;;;;;;-0.48;73.17;101181.19;107065;1251;61180;-72
2022/03/07 05:16:58;;;;;;;34.50;20.30;;;;;;;-0.49;72.77;101170.94;107196;1251;74545;-73
2022/03/07 05:19:27;;;;;;;40.50;21.40;;;;;;;-0.49;72.59;101174.52;107153;1251;73833;-74
2022/03/07 05:21:57;;;;;;;37.60;19.90;;;;;;;-0.50;72.49;101170.12;107110;1251;71246;-71
2022/03/07 05:24:25;;;;;;;32.60;20.20;;;;;;;-0.53;72.30;101163.14;107228;1251;74346;-73
2022/03/07 05:26:54;;;;;;;40.00;21.50;;;;;;;-0.50;72.60;101162.59;107064;1251;63020;-70
2022/03/07 05:29:24;;;;;;;38.30;22.00;;;;;;;-0.48;72.92;101165.28;107368;1249;61107;-74
2022/03/07 05:31:53;;;;;;;44.70;22.60;;;;;;;-0.46;73.03;101157.70;107192;1250;74611;-72
2022/03/07 05:34:21;;;;;;;45.20;26.00;;;;;;;-0.43;73.64;101162.96;107444;1248;72334;-71
2022/03/07 05:36:51;;;;;;;49.80;26.00;;;;;;;-0.40;74.33;101163.73;107236;1251;71291;-72
2022/03/07 05:39:20;;;;;;;47.00;24.80;;;;;;;-0.30;75.80;101162.85;107281;1250;73938;-70
2022/03/07 05:41:49;;;;;;;49.70;26.90;;;;;;;-0.15;77.15;101158.96;107354;1250;60440;-73
2022/03/07 05:44:18;;;;;;;46.40;25.70;;;;;;;0.01;77.52;101159.80;107185;1251;61229;-72
2022/03/07 05:46:47;;;;;;;43.50;24.50;;;;;;;0.12;75.66;101162.84;107114;1250;74531;-72
2022/03/07 05:49:17;;;;;;;43.10;25.30;;;;;;;0.20;75.21;101162.97;107477;1250;71478;-73
2022/03/07 05:51:46;;;;;;;45.80;22.90;;;;;;;0.22;75.00;101162.44;107510;1250;69654;-71
2022/03/07 05:54:15;;;;;;;39.40;22.00;;;;;;;0.25;74.57;101164.09;107219;1250;72373;-72
2022/03/07 05:56:44;;;;;;;39.50;22.90;;;;;;;0.26;74.70;101160.80;107238;1251;58753;-71
2022/03/07 05:59:13;;;;;;;38.90;22.90;;;;;;;0.30;74.72;101162.45;107130;1254;59683;-73
2022/03/07 06:01:42;;;;;;;38.30;22.60;;;;;;;0.32;73.47;101167.00;107248;1250;72584;-72
2022/03/07 06:04:11;;;;;;;47.40;23.10;;;;;;;0.35;72.93;101166.60;107133;1251;72527;-71
2022/03/07 06:06:41;;;;;;;43.00;23.70;;;;;;;0.33;72.55;101165.45;107401;1250;70381;-73
2022/03/07 06:09:10;;;;;;;40.60;25.20;;;;;;;0.36;72.48;101164.34;107522;1250;73980;-73
2022/03/07 06:11:39;;;;;;;54.30;27.20;;;;;;;0.29;72.11;101162.45;107478;1249;59978;-72
2022/03/07 06:14:08;;;;;;;49.40;28.30;;;;;;;0.31;72.11;101162.24;107426;1250;59542;-72
2022/03/07 06:16:37;;;;;;;55.60;29.40;;;;;;;0.26;71.94;101161.16;107579;1251;72027;-72
2022/03/07 06:19:07;;;;;;;50.60;27.70;;;;;;;0.27;72.25;101161.66;107645;1250;72627;-72
2022/03/07 06:21:36;;;;;;;37.30;21.20;;;;;;;0.30;72.28;101154.90;107186;1251;72094;-73
2022/03/07 06:24:05;;;;;;;38.20;21.10;;;;;;;0.42;71.23;101159.60;107105;1251;74521;-73
2022/03/07 06:26:35;;;;;;;41.10;23.70;;;;;;;0.41;70.86;101157.40;107346;1251;61888;-73
2022/03/07 06:29:06;;;;;;;41.10;22.40;;;;;;;0.37;71.20;101157.48;107328;1251;61763;-73
2022/03/07 06:31:35;;;;;;;47.20;25.60;;;;;;;0.30;71.32;101155.91;107582;1248;74245;-72
2022/03/07 06:34:04;;;;;;;50.20;26.30;;;;;;;0.32;71.79;101155.02;107497;1250;70944;-78
2022/03/07 06:36:36;;;;;;;49.90;26.80;;;;;;;0.37;71.49;101152.00;107411;1250;70233;-72
2022/03/07 06:39:06;;;;;;;44.90;27.30;;;;;;;0.45;71.57;101157.30;107363;1250;71962;-71
2022/03/07 06:41:35;;;;;;;46.70;28.20;;;;;;;0.50;70.93;101151.68;107129;1251;59761;-72
2022/03/07 06:44:04;;;;;;;50.30;27.80;;;;;;;0.52;70.76;101151.63;107297;1250;62304;-73
2022/03/07 06:46:33;;;;;;;52.30;28.80;;;;;;;0.54;70.33;101152.61;107575;1250;73397;-73
2022/03/07 06:49:02;;;;;;;50.00;27.40;;;;;;;0.58;70.19;101153.37;107407;1250;72243;-73
2022/03/07 06:51:32;;;;;;;51.10;26.90;;;;;;;0.65;70.67;101152.19;107344;1251;71346;-72
2022/03/07 06:54:01;;;;;;;36.90;20.80;;;;;;;0.66;70.14;101151.64;107547;1251;73923;-74
2022/03/07 06:56:30;;;;;;;32.20;19.20;;;;;;;0.78;69.46;101148.27;107345;1251;63526;-74
2022/03/07 06:58:59;;;;;;;28.80;17.30;;;;;;;0.78;67.72;101142.93;107500;1250;60249;-73
2022/03/07 07:01:29;;;;;;;32.70;18.40;;;;;;;0.77;67.26;101140.40;107192;1251;74495;-73
2022/03/07 07:03:58;;;;;;;32.80;17.60;;;;;;;0.75;66.81;101138.92;107315;1251;73449;-72
2022/03/07 07:06:27;;;;;;;33.70;17.00;;;;;;;0.72;66.42;101138.29;107361;1251;71696;-74
2022/03/07 07:08:56;;;;;;;42.80;18.80;;;;;;;0.74;65.68;101133.09;107220;1253;72257;-72
2022/03/07 07:11:26;;;;;;;30.10;17.70;;;;;;;0.75;66.20;101132.56;107310;1249;59010;-73
2022/03/07 07:13:55;;;;;;;31.80;16.60;;;;;;;0.78;65.52;101128.88;107130;1251;59528;-71
2022/03/07 07:16:24;;;;;;;29.90;18.10;;;;;;;0.80;65.65;101134.49;107342;1250;71940;-70
2022/03/07 07:18:53;;;;;;;29.60;17.20;;;;;;;0.83;64.83;101132.87;107354;1250;69810;-73
2022/03/07 07:21:23;;;;;;;33.60;19.00;;;;;;;0.88;63.95;101134.80;107182;1250;68259;-72
2022/03/07 07:23:52;;;;;;;36.10;18.80;;;;;;;0.88;64.13;101129.84;107197;1250;74885;-71
2022/03/07 07:26:21;;;;;;;33.80;19.10;;;;;;;0.86;64.71;101127.49;107264;1250;60818;-74
2022/03/07 07:28:50;;;;;;;36.00;16.10;;;;;;;0.91;65.14;101126.33;106958;1250;607586;-75
2022/03/07 07:31:20;;;;;;;39.50;19.90;;;;;;;1.02;65.55;101126.73;107189;1250;73308;-72
2022/03/07 07:33:50;;;;;;;36.50;19.00;;;;;;;1.11;65.30;101122.88;107446;1251;71846;-73
2022/03/07 07:36:19;;;;;;;34.00;19.00;;;;;;;1.21;64.33;101119.36;107145;1251;71060;-73
2022/03/07 07:38:47;;;;;;;28.90;15.00;;;;;;;1.29;65.06;101118.63;107135;1250;73666;-72
2022/03/07 07:41:17;;;;;;;31.30;17.70;;;;;;;1.42;65.28;101115.34;107438;1250;62808;-74
2022/03/07 07:43:49;;;;;;;27.70;16.80;;;;;;;1.52;65.69;101111.96;107325;1251;60892;-75
2022/03/07 07:46:20;;;;;;;;;;;;;;;1.55;63.67;101111.20;106907;1251;74257;-74
2022/03/07 07:48:50;;;;;;;30.10;18.50;;;;;;;1.59;62.52;101108.35;107145;1251;70557;-74
2022/03/07 07:51:20;;;;;;;38.30;21.30;;;;;;;1.71;63.22;101104.05;107297;1251;69859;-73
2022/03/07 07:53:50;;;;;;;32.20;18.70;;;;;;;1.82;64.20;101104.73;107469;1250;74351;-72
2022/03/07 07:56:20;;;;;;;34.20;19.50;;;;;;;1.87;63.04;101102.20;107514;1251;61062;-73
2022/03/07 07:58:49;;;;;;;32.60;18.30;;;;;;;1.90;63.04;101097.66;107490;1250;62121;-73
2022/03/07 08:01:18;;;;;;;34.30;19.10;;;;;;;1.96;63.69;101098.48;107435;1251;72321;-79
2022/03/07 08:03:48;;;;;;;34.90;19.70;;;;;;;2.03;62.26;101103.95;107280;1251;72769;-73
2022/03/07 08:06:17;;;;;;;34.80;18.40;;;;;;;2.10;63.19;101098.91;107393;1251;69038;-75
2022/03/07 08:08:46;;;;;;;28.40;16.40;;;;;;;2.14;61.60;101096.89;107038;1251;73038;-74
2022/03/07 08:11:15;;;;;;;33.90;18.70;;;;;;;2.04;60.43;101096.88;107024;1251;59674;-74
2022/03/07 08:13:44;;;;;;;28.70;18.10;;;;;;;2.06;59.61;101099.38;107192;1251;62152;-76
2022/03/07 08:16:13;;;;;;;28.40;18.00;;;;;;;2.18;61.21;101091.45;107108;1251;73097;-73
2022/03/07 08:18:42;;;;;;;29.90;17.00;;;;;;;2.25;60.92;101089.49;107046;1250;70242;-73
2022/03/07 08:21:11;;;;;;;29.70;15.10;;;;;;;2.33;60.37;101089.26;107320;1250;67970;-72
2022/03/07 08:23:40;;;;;;;26.40;13.80;;;;;;;2.39;59.32;101086.80;107021;1251;73242;-74
2022/03/07 08:26:09;;;;;;;27.60;14.60;;;;;;;2.44;58.06;101078.42;107437;1249;60538;-76
2022/03/07 08:28:38;;;;;;;25.40;15.30;;;;;;;2.43;57.51;101077.76;107437;1250;60636;-74
2022/03/07 08:31:07;;;;;;;27.90;14.30;;;;;;;2.53;58.18;101075.34;107410;1250;70142;-74
2022/03/07 08:33:36;;;;;;;25.80;14.30;;;;;;;2.60;57.00;101071.17;107238;1250;70338;-73
2022/03/07 08:36:05;;;;;;;24.20;14.20;;;;;;;2.72;57.40;101071.95;107080;1251;67971;-72
2022/03/07 08:38:34;;;;;;;22.40;14.20;;;;;;;2.77;56.32;101073.00;107007;1251;74022;-75
2022/03/07 08:41:04;;;;;;;22.10;14.10;;;;;;;2.84;57.42;101072.43;107055;1251;60871;-75
2022/03/07 08:43:33;;;;;;;25.90;14.70;;;;;;;2.82;57.47;101069.41;107099;1251;60861;-74
2022/03/07 08:46:02;;;;;;;20.60;12.70;;;;;;;2.92;55.04;101067.85;107191;1251;71622;-73
2022/03/07 08:48:31;;;;;;;23.10;12.20;;;;;;;3.01;53.23;101067.54;107160;1251;70865;-73
2022/03/07 08:51:01;;;;;;;25.00;14.70;;;;;;;2.88;53.74;101065.39;107273;1250;67027;-74
2022/03/07 08:53:30;;;;;;;24.90;13.00;;;;;;;2.84;54.93;101066.06;107261;1250;72308;-71
2022/03/07 08:55:59;;;;;;;23.60;14.30;;;;;;;2.89;55.56;101066.02;107046;1251;59001;-74
2022/03/07 08:58:49;;;;;;;19.80;10.30;;;;;;;3.01;53.59;101063.04;106912;1251;62361;-74
2022/03/07 09:01:20;;;;;;;24.70;13.10;;;;;;;3.29;52.03;101067.89;107157;1251;72555;-77
2022/03/07 09:03:49;;;;;;;19.10;10.80;;;;;;;3.27;52.25;101061.95;107287;1250;70835;-71
2022/03/07 09:06:19;;;;;;;25.00;14.20;;;;;;;3.36;51.61;101060.59;107179;1249;68670;-73
2022/03/07 09:08:48;;;;;;;18.20;10.50;;;;;;;3.26;53.16;101062.65;107044;1250;72368;-74
2022/03/07 09:11:22;;;;;;;27.00;14.50;;;;;;;3.43;52.14;101056.34;107084;1250;59884;-72
2022/03/07 09:13:53;;;;;;;23.30;14.90;;;;;;;3.41;52.86;101053.66;107064;1251;60563;-74
2022/03/07 09:16:22;;;;;;;22.80;13.70;;;;;;;3.56;52.38;101053.63;107219;1251;74890;-74
2022/03/07 09:18:51;;;;;;;20.60;13.20;;;;;;;3.79;54.29;101050.02;106980;1251;70915;-73
2022/03/07 09:21:20;;;;;;;23.40;14.40;;;;;;;3.71;51.16;101051.69;106894;1251;70590;-73
2022/03/07 09:23:49;;;;;;;23.60;15.60;;;;;;;3.75;51.17;101046.87;107088;1251;74792;-73
2022/03/07 09:26:18;;;;;;;20.80;12.50;;;;;;;3.95;51.51;101041.95;108073;1250;60489;-73
2022/03/07 09:28:48;;;;;;;23.00;14.30;;;;;;;4.21;51.79;101043.14;107369;1253;59075;-74
2022/03/07 09:31:18;;;;;;;24.30;14.70;;;;;;;4.21;51.42;101038.88;107211;1251;73631;-74
2022/03/07 09:33:47;;;;;;;20.00;13.00;;;;;;;4.14;50.39;101037.23;107180;1251;71677;-75
2022/03/07 09:36:16;;;;;;;21.50;13.10;;;;;;;4.17;49.11;101034.36;107422;1251;69653;-75
2022/03/07 09:38:45;;;;;;;16.80;10.40;;;;;;;4.47;50.07;101035.70;107211;1251;73056;-74
2022/03/07 09:41:14;;;;;;;17.40;10.60;;;;;;;4.55;49.63;101031.21;107317;1250;58909;-77
2022/03/07 09:43:44;;;;;;;17.00;10.80;;;;;;;4.47;49.72;101033.10;107251;1250;58921;-78
2022/03/07 09:46:15;;;;;;;15.50;9.90;;;;;;;4.34;47.62;101028.48;107136;1253;71962;-75
2022/03/07 09:48:44;;;;;;;13.40;8.80;;;;;;;4.46;47.79;101026.77;107202;1250;72317;-75
2022/03/07 09:51:13;;;;;;;15.40;9.20;;;;;;;4.60;48.38;101024.45;107361;1251;69627;-74
2022/03/07 09:53:43;;;;;;;12.80;8.60;;;;;;;4.34;47.19;101016.60;107170;1251;72354;-75
2022/03/07 09:56:12;;;;;;;18.50;10.00;;;;;;;4.29;45.72;101012.68;107093;1251;59468;-75
2022/03/07 09:58:41;;;;;;;18.40;10.20;;;;;;;4.51;47.50;101009.15;107626;1250;60860;-75
2022/03/07 10:01:19;;;;;;;13.10;8.70;;;;;;;4.84;46.59;101010.48;107618;1250;74428;-76
2022/03/07 10:03:53;;;;;;;15.20;9.50;;;;;;;4.75;45.67;101009.66;107778;1250;69737;-74
2022/03/07 10:06:22;;;;;;;15.60;9.60;;;;;;;4.33;45.59;101005.24;107195;1250;70418;-75
2022/03/07 10:08:59;;;;;;;14.50;8.20;;;;;;;4.27;45.60;100999.95;107711;1250;73372;-75
2022/03/07 10:11:30;;;;;;;14.40;8.90;;;;;;;4.59;45.94;100995.73;109476;1249;60088;-75
2022/03/07 10:14:04;;;;;;;15.00;9.70;;;;;;;4.62;46.23;100993.86;107635;1250;61776;-75
2022/03/07 10:16:39;;;;;;;18.10;10.60;;;;;;;4.77;47.79;100990.59;107451;1250;71352;-76
2022/03/07 10:19:15;;;;;;;17.90;10.30;;;;;;;4.67;45.73;100989.81;107322;1250;72214;-74
2022/03/07 10:21:50;;;;;;;23.50;13.90;;;;;;;4.75;45.58;100992.41;107350;1250;72311;-75
2022/03/07 10:24:33;;;;;;;16.60;10.40;;;;;;;4.59;45.27;100988.43;107294;1250;71622;-74
2022/03/07 10:27:02;;;;;;;16.10;10.30;;;;;;;4.33;45.24;100986.79;107225;1250;60425;-76
2022/03/07 10:29:31;;;;;;;14.50;9.80;;;;;;;4.29;45.83;100984.55;107247;1250;61319;-75
2022/03/07 10:32:00;;;;;;;11.70;7.60;;;;;;;4.61;46.51;100979.58;107284;1250;71403;-74
2022/03/07 10:34:36;;;;;;;12.50;7.70;;;;;;;4.68;45.77;100973.90;107125;1249;72151;-72
2022/03/07 10:37:04;;;;;;;16.20;9.30;;;;;;;4.50;45.12;100975.05;107059;1251;70813;-73
2022/03/07 10:39:34;;;;;;;15.20;8.40;;;;;;;4.53;45.63;100973.89;107155;1251;75216;-74
2022/03/07 10:42:03;;;;;;;30.60;14.50;;;;;;;4.60;45.22;100971.02;107145;1251;61023;-73
2022/03/07 10:44:40;;;;;;;15.30;8.70;;;;;;;4.73;45.20;100975.08;107166;1250;62321;-75
2022/03/07 10:47:19;;;;;;;15.20;9.20;;;;;;;4.65;44.96;100971.83;107122;1251;72171;-76
2022/03/07 10:49:57;;;;;;;13.70;8.90;;;;;;;4.48;45.08;100970.46;107320;1250;70359;-74
2022/03/07 10:52:42;;;;;;;16.60;8.70;;;;;;;4.44;44.98;100967.20;107139;1251;68262;-76
2022/03/07 10:55:13;;;;;;;15.10;9.60;;;;;;;4.28;45.71;100959.25;107116;1251;73153;-73
2022/03/07 10:57:43;;;;;;;19.10;10.90;;;;;;;4.23;45.43;100963.77;106987;1250;62015;-73
2022/03/07 11:00:17;;;;;;;16.90;9.40;;;;;;;4.25;46.47;100956.27;107294;1250;61099;-76
2022/03/07 11:02:47;;;;;;;22.50;11.60;;;;;;;4.18;45.92;100954.16;107197;1250;75113;-75
2022/03/07 11:05:18;;;;;;;14.80;8.50;;;;;;;4.11;46.05;100947.05;107146;1251;72651;-74
2022/03/07 11:07:51;;;;;;;13.40;8.40;;;;;;;4.20;45.23;100949.05;107210;1251;71974;-75
2022/03/07 11:10:21;;;;;;;15.10;9.00;;;;;;;3.98;45.62;100943.77;107197;1250;72725;-72
2022/03/07 11:12:51;;;;;;;12.70;8.30;;;;;;;3.84;46.24;100943.16;107103;1250;59957;-74
2022/03/07 11:15:21;;;;;;;15.30;9.50;;;;;;;3.72;46.71;100938.29;107214;1250;61794;-73
2022/03/07 11:17:50;;;;;;;17.10;9.60;;;;;;;3.59;47.53;100937.62;107082;1251;72668;-74
2022/03/07 11:20:19;;;;;;;19.10;10.50;;;;;;;3.52;48.53;100936.51;107130;1251;71277;-74
2022/03/07 11:22:48;;;;;;;15.20;9.70;;;;;;;3.69;49.09;100937.20;107065;1251;69108;-75